createdAt,value
2017-09-05T00:01:32.770Z,17.80
2017-09-05T00:03:59.088Z,17.80
2017-09-05T00:06:25.456Z,17.80
2017-09-05T00:12:06.196Z,17.70
2017-09-05T00:14:45.388Z,17.60
2017-09-05T00:17:21.599Z,17.60
2017-09-05T00:19:57.827Z,17.70
2017-09-05T00:22:24.161Z,17.70
2017-09-05T00:24:50.499Z,17.60
2017-09-05T00:27:16.844Z,17.60
2017-09-05T00:29:43.169Z,17.60
2017-09-05T00:32:09.479Z,17.60
2017-09-05T00:34:35.763Z,17.60
2017-09-05T00:37:02.085Z,17.60
2017-09-05T00:39:28.415Z,17.60
2017-09-05T00:41:54.740Z,17.60
2017-09-05T00:44:21.044Z,17.60
2017-09-05T00:46:47.348Z,17.50
2017-09-05T00:49:13.660Z,17.60
2017-09-05T00:51:39.943Z,17.60
2017-09-05T00:54:06.236Z,17.60
2017-09-05T00:56:32.540Z,17.50
2017-09-05T00:58:58.868Z,17.40
2017-09-05T01:01:25.188Z,17.40
2017-09-05T01:03:51.512Z,17.30
2017-09-05T01:06:17.911Z,17.40
2017-09-05T01:08:44.281Z,17.30
2017-09-05T01:11:10.571Z,17.30
2017-09-05T01:13:36.889Z,17.30
2017-09-05T01:16:03.169Z,17.30
2017-09-05T01:18:29.563Z,17.30
2017-09-05T01:20:56.027Z,17.30
2017-09-05T01:23:22.332Z,17.30
2017-09-05T01:25:48.695Z,17.30
2017-09-05T01:28:15.021Z,17.20
2017-09-05T01:30:41.312Z,17.20
2017-09-05T01:33:07.616Z,17.20
2017-09-05T01:35:33.898Z,17.30
2017-09-05T01:38:00.195Z,17.30
2017-09-05T01:40:26.535Z,17.20
2017-09-05T01:42:52.884Z,17.20
2017-09-05T01:45:19.223Z,17.30
2017-09-05T01:47:45.498Z,17.30
2017-09-05T01:50:11.844Z,17.30
2017-09-05T01:52:38.159Z,17.30
2017-09-05T01:55:04.456Z,17.20
2017-09-05T01:57:30.769Z,17.20
2017-09-05T01:59:57.060Z,17.20
2017-09-05T02:02:23.379Z,17.20
2017-09-05T02:04:49.656Z,17.20
2017-09-05T02:07:15.977Z,17.20
2017-09-05T02:09:42.276Z,17.20
2017-09-05T02:12:08.768Z,17.20
2017-09-05T02:14:35.055Z,17.20
2017-09-05T02:17:01.365Z,17.20
2017-09-05T02:19:27.672Z,17.10
2017-09-05T02:21:54.052Z,17.10
2017-09-05T02:24:21.202Z,17.10
2017-09-05T02:26:47.468Z,17.10
2017-09-05T02:29:13.779Z,17.10
2017-09-05T02:31:40.101Z,17.10
2017-09-05T02:34:06.372Z,17.00
2017-09-05T02:36:32.692Z,17.10
2017-09-05T02:38:58.978Z,17.00
2017-09-05T02:41:25.273Z,17.00
2017-09-05T02:43:51.535Z,17.00
2017-09-05T02:46:17.840Z,17.00
2017-09-05T02:48:44.131Z,17.00
2017-09-05T02:51:10.447Z,17.00
2017-09-05T02:53:36.724Z,16.90
2017-09-05T02:56:02.996Z,16.90
2017-09-05T02:58:29.297Z,16.90
2017-09-05T03:00:55.604Z,16.80
2017-09-05T03:03:21.976Z,16.80
2017-09-05T03:05:48.243Z,16.80
2017-09-05T03:08:14.553Z,16.80
2017-09-05T03:10:40.858Z,16.80
2017-09-05T03:13:07.217Z,16.70
2017-09-05T03:15:33.520Z,16.70
2017-09-05T03:17:59.811Z,16.70
2017-09-05T03:20:26.132Z,16.70
2017-09-05T03:22:52.444Z,16.60
2017-09-05T03:25:18.749Z,16.60
2017-09-05T03:27:45.056Z,16.50
2017-09-05T03:30:11.351Z,16.50
2017-09-05T03:32:37.676Z,16.50
2017-09-05T03:35:03.995Z,16.50
2017-09-05T03:37:30.283Z,16.50
2017-09-05T03:39:56.568Z,16.50
2017-09-05T03:42:22.852Z,16.50
2017-09-05T03:44:49.171Z,16.50
2017-09-05T03:47:15.443Z,16.50
2017-09-05T03:49:41.744Z,16.40
2017-09-05T03:52:08.064Z,16.40
2017-09-05T03:54:34.483Z,16.40
2017-09-05T03:57:00.800Z,16.40
2017-09-05T03:59:27.083Z,16.40
2017-09-05T04:01:53.395Z,16.40
2017-09-05T04:04:19.655Z,16.40
2017-09-05T04:06:45.988Z,16.40
2017-09-05T04:09:12.328Z,16.40
2017-09-05T04:11:38.621Z,16.50
2017-09-05T04:14:04.948Z,16.40
2017-09-05T04:16:31.235Z,16.40
2017-09-05T04:18:57.554Z,16.40
2017-09-05T04:21:23.885Z,16.40
2017-09-05T04:23:50.266Z,16.30
2017-09-05T04:26:16.547Z,16.30
2017-09-05T04:28:42.948Z,16.20
2017-09-05T04:31:09.255Z,16.20
2017-09-05T04:33:35.576Z,16.10
2017-09-05T04:36:01.874Z,16.00
2017-09-05T04:38:28.211Z,15.90
2017-09-05T04:40:54.544Z,15.80
2017-09-05T04:43:20.848Z,15.70
2017-09-05T04:45:47.174Z,15.70
2017-09-05T04:48:13.486Z,15.70
2017-09-05T04:50:39.789Z,15.60
2017-09-05T04:53:06.114Z,15.50
2017-09-05T04:55:32.444Z,15.50
2017-09-05T04:57:58.739Z,15.50
2017-09-05T05:00:25.051Z,15.50
2017-09-05T05:02:51.385Z,15.60
2017-09-05T05:05:17.768Z,15.60
2017-09-05T05:07:44.083Z,15.60
2017-09-05T05:10:10.365Z,15.70
2017-09-05T05:12:36.644Z,15.70
2017-09-05T05:15:02.952Z,15.80
2017-09-05T05:17:29.248Z,15.80
2017-09-05T05:19:55.612Z,15.90
2017-09-05T05:22:21.893Z,15.90
2017-09-05T05:24:48.228Z,16.00
2017-09-05T05:27:14.519Z,16.20
2017-09-05T05:29:40.771Z,16.30
2017-09-05T05:32:07.083Z,16.60
2017-09-05T05:34:33.383Z,16.80
2017-09-05T05:36:59.861Z,17.10
2017-09-05T05:39:26.172Z,17.20
2017-09-05T05:41:52.523Z,17.30
2017-09-05T05:44:18.848Z,17.30
2017-09-05T05:46:45.243Z,17.20
2017-09-05T05:49:11.596Z,17.10
2017-09-05T05:51:38.007Z,17.10
2017-09-05T05:54:04.512Z,17.10
2017-09-05T05:56:30.792Z,17.20
2017-09-05T05:58:57.136Z,17.40
2017-09-05T06:01:23.441Z,17.60
2017-09-05T06:03:49.810Z,17.90
2017-09-05T06:06:16.089Z,18.00
2017-09-05T06:08:42.429Z,18.10
2017-09-05T06:11:08.734Z,18.30
2017-09-05T06:13:35.042Z,18.50
2017-09-05T06:16:01.385Z,18.70
2017-09-05T06:18:27.810Z,18.90
2017-09-05T06:20:54.161Z,19.10
2017-09-05T06:23:20.496Z,19.40
2017-09-05T06:25:46.775Z,19.60
2017-09-05T06:28:13.056Z,20.10
2017-09-05T06:30:39.393Z,21.50
2017-09-05T06:33:05.680Z,22.60
2017-09-05T06:35:32.087Z,22.70
2017-09-05T06:37:58.545Z,22.50
2017-09-05T06:40:24.903Z,22.10
2017-09-05T06:42:51.239Z,21.80
2017-09-05T06:45:17.552Z,21.60
2017-09-05T06:47:43.875Z,21.70
2017-09-05T06:50:10.188Z,22.60
2017-09-05T06:52:36.535Z,24.70
2017-09-05T06:55:02.820Z,26.70
2017-09-05T06:57:29.125Z,28.30
2017-09-05T06:59:55.499Z,29.10
2017-09-05T07:02:21.825Z,30.20
2017-09-05T07:04:48.135Z,30.40
2017-09-05T07:07:14.504Z,30.50
2017-09-05T07:09:40.804Z,31.20
2017-09-05T07:12:07.149Z,32.00
2017-09-05T07:14:33.444Z,33.00
2017-09-05T07:16:59.912Z,34.50
2017-09-05T07:19:26.960Z,36.80
2017-09-05T07:21:53.248Z,36.70
2017-09-05T07:24:19.546Z,37.10
2017-09-05T07:26:45.838Z,36.80
2017-09-05T07:29:12.135Z,37.50
2017-09-05T07:31:38.421Z,37.30
2017-09-05T07:34:04.712Z,37.50
2017-09-05T07:36:31.007Z,39.00
2017-09-05T07:38:57.322Z,40.40
2017-09-05T07:41:23.864Z,40.30
2017-09-05T07:43:50.259Z,39.50
2017-09-05T07:46:16.685Z,38.80
2017-09-05T07:48:43.031Z,38.60
2017-09-05T07:51:09.368Z,38.40
2017-09-05T07:53:35.659Z,38.60
2017-09-05T07:56:01.986Z,38.80
2017-09-05T07:58:28.332Z,38.20
2017-09-05T08:00:54.629Z,37.50
2017-09-05T08:03:20.928Z,38.50
2017-09-05T08:05:47.229Z,39.70
2017-09-05T08:08:13.539Z,41.00
2017-09-05T08:10:39.827Z,42.50
2017-09-05T08:13:06.124Z,42.70
2017-09-05T08:15:32.497Z,42.10
2017-09-05T08:17:58.828Z,42.40
2017-09-05T08:20:25.136Z,43.10
2017-09-05T08:22:51.412Z,42.60
2017-09-05T08:25:17.717Z,41.00
2017-09-05T08:27:44.108Z,38.20
2017-09-05T08:30:10.373Z,35.90
2017-09-05T08:32:36.702Z,34.20
2017-09-05T08:35:03.052Z,32.70
2017-09-05T08:37:29.399Z,31.70
2017-09-05T08:39:55.684Z,30.80
2017-09-05T08:42:22.020Z,30.10
2017-09-05T08:44:48.339Z,29.70
2017-09-05T08:47:14.832Z,29.30
2017-09-05T08:49:41.148Z,28.90
2017-09-05T08:52:07.444Z,28.70
2017-09-05T08:54:33.776Z,28.40
2017-09-05T08:57:00.118Z,28.20
